Time;durP1;ratioP1;P1;durP2;ratioP2;P2;SDS_P1;SDS_P2;PMS_P1;PMS_P2;Temp;Humidity;BMP_temperature;BMP_pressure;BME280_temperature;BME280_humidity;BME280_pressure;Samples;Min_cycle;Max_cycle;Signal;HPM_P1;HPM_P2
2023/11/20 00:00:37;;;;;;;36.50;4.93;;;;;;;;;;5052285;28;20399;-38
2023/11/20 00:03:04;;;;;;;40.47;5.55;;;;;;;;;;5051823;28;20448;-39
2023/11/20 00:05:31;;;;;;;24.75;5.30;;;;;;;;;;5055156;28;20162;-38
2023/11/20 00:07:58;;;;;;;47.88;6.05;;;;;;;;;;5060353;28;20041;-38
2023/11/20 00:10:25;;;;;;;33.63;5.93;;;;;;;;;;5052135;28;20475;-39
2023/11/20 00:12:52;;;;;;;30.73;5.28;;;;;;;;;;5051718;28;20033;-36
2023/11/20 00:15:19;;;;;;;30.70;5.50;;;;;;;;;;5051336;28;20033;-36
2023/11/20 00:17:47;;;;;;;39.05;5.78;;;;;;;;;;5052047;28;20040;-34
2023/11/20 00:20:14;;;;;;;34.05;5.50;;;;;;;;;;5051863;28;20839;-35
2023/11/20 00:22:41;;;;;;;39.40;5.75;;;;;;;;;;5051901;28;20021;-33
2023/11/20 00:25:09;;;;;;;28.95;5.75;;;;;;;;;;5051775;28;20501;-35
2023/11/20 00:27:36;;;;;;;33.92;5.53;;;;;;;;;;5051852;28;20029;-36
2023/11/20 00:30:05;;;;;;;27.20;4.95;;;;;;;;;;5051602;28;20037;-36
2023/11/20 00:32:32;;;;;;;28.60;5.25;;;;;;;;;;5051535;28;20112;-37
2023/11/20 00:34:59;;;;;;;29.55;5.28;;;;;;;;;;5052347;28;20545;-37
2023/11/20 00:37:26;;;;;;;33.50;5.57;;;;;;;;;;5061096;28;20025;-38
2023/11/20 00:39:53;;;;;;;33.95;6.30;;;;;;;;;;5051824;28;20457;-35
2023/11/20 00:42:21;;;;;;;31.73;4.93;;;;;;;;;;5033630;28;20553;-36
2023/11/20 00:44:48;;;;;;;22.65;4.93;;;;;;;;;;5051413;28;20029;-36
2023/11/20 00:47:15;;;;;;;30.15;5.30;;;;;;;;;;5051583;28;20434;-37
2023/11/20 00:49:42;;;;;;;24.17;4.30;;;;;;;;;;5051551;28;20071;-34
2023/11/20 00:52:09;;;;;;;27.52;4.93;;;;;;;;;;5051292;28;20032;-39
2023/11/20 00:54:36;;;;;;;31.60;5.43;;;;;;;;;;5051323;28;20037;-35
2023/11/20 00:57:03;;;;;;;26.30;4.57;;;;;;;;;;5050942;28;20033;-37
2023/11/20 00:59:30;;;;;;;20.13;4.88;;;;;;;;;;5051579;28;20029;-35
2023/11/20 01:01:57;;;;;;;20.20;4.40;;;;;;;;;;5051272;28;20108;-36
2023/11/20 01:04:24;;;;;;;21.15;5.03;;;;;;;;;;5051283;28;20078;-38
2023/11/20 01:06:51;;;;;;;26.63;4.70;;;;;;;;;;5049954;28;20079;-37
2023/11/20 01:09:19;;;;;;;21.90;4.38;;;;;;;;;;5050306;28;20036;-34
2023/11/20 01:11:46;;;;;;;21.55;5.18;;;;;;;;;;5063014;28;20033;-35
2023/11/20 01:14:13;;;;;;;27.83;4.88;;;;;;;;;;5045366;28;20031;-35
2023/11/20 01:16:40;;;;;;;16.27;3.80;;;;;;;;;;5050816;28;20052;-36
2023/11/20 01:19:07;;;;;;;30.73;4.65;;;;;;;;;;5051249;28;20131;-37
2023/11/20 01:21:35;;;;;;;27.42;4.38;;;;;;;;;;5047171;28;20033;-37
2023/11/20 01:24:03;;;;;;;28.55;4.70;;;;;;;;;;5050616;28;20475;-36
2023/11/20 01:26:30;;;;;;;16.77;4.35;;;;;;;;;;5050858;28;20550;-37
2023/11/20 01:28:57;;;;;;;15.43;4.13;;;;;;;;;;5050790;28;20384;-39
2023/11/20 01:31:24;;;;;;;20.17;4.15;;;;;;;;;;5051127;28;20554;-37
2023/11/20 01:33:52;;;;;;;20.40;3.85;;;;;;;;;;5051062;28;20040;-36
2023/11/20 01:36:19;;;;;;;18.25;4.15;;;;;;;;;;5050906;28;20033;-37
2023/11/20 01:38:46;;;;;;;16.45;3.92;;;;;;;;;;5055386;28;20352;-36
2023/11/20 01:41:13;;;;;;;17.35;3.67;;;;;;;;;;5057710;28;20040;-37
2023/11/20 01:43:40;;;;;;;20.45;4.03;;;;;;;;;;5050642;28;20175;-36
2023/11/20 01:46:10;;;;;;;12.98;3.55;;;;;;;;;;5051194;28;20040;-36
2023/11/20 01:48:37;;;;;;;18.77;3.78;;;;;;;;;;5050766;28;20056;-39
2023/11/20 01:51:04;;;;;;;14.23;3.47;;;;;;;;;;5050819;28;20036;-36
2023/11/20 01:53:32;;;;;;;12.77;3.65;;;;;;;;;;5050519;28;20111;-37
2023/11/20 01:55:59;;;;;;;11.07;3.28;;;;;;;;;;5050740;28;20518;-38
2023/11/20 01:58:27;;;;;;;18.17;3.05;;;;;;;;;;5050917;28;20121;-38
2023/11/20 02:00:54;;;;;;;13.88;3.30;;;;;;;;;;5050347;28;20497;-38
2023/11/20 02:03:22;;;;;;;17.67;3.92;;;;;;;;;;5050923;28;20025;-37
2023/11/20 02:05:49;;;;;;;14.43;3.25;;;;;;;;;;5050208;28;20036;-36
2023/11/20 02:08:16;;;;;;;18.58;4.05;;;;;;;;;;5054213;28;20435;-38
2023/11/20 02:10:43;;;;;;;12.43;3.80;;;;;;;;;;5056794;28;20464;-35
2023/11/20 02:13:10;;;;;;;11.82;3.72;;;;;;;;;;5062959;28;20033;-36
2023/11/20 02:15:38;;;;;;;11.88;3.63;;;;;;;;;;5054231;28;20041;-36
2023/11/20 02:18:05;;;;;;;16.27;3.58;;;;;;;;;;5054479;28;20037;-36
2023/11/20 02:20:32;;;;;;;12.65;3.40;;;;;;;;;;5054135;28;20094;-38
2023/11/20 02:23:00;;;;;;;11.20;2.88;;;;;;;;;;5053651;28;20043;-37
2023/11/20 02:25:27;;;;;;;10.13;3.25;;;;;;;;;;5054168;28;20033;-36
2023/11/20 02:28:05;;;;;;;12.50;3.55;;;;;;;;;;5053994;28;20035;-37
2023/11/20 02:30:32;;;;;;;12.70;3.05;;;;;;;;;;5053957;28;20479;-36
2023/11/20 02:32:59;;;;;;;13.82;2.88;;;;;;;;;;5054113;28;20033;-37
2023/11/20 02:35:26;;;;;;;10.73;2.70;;;;;;;;;;5053893;28;20808;-38
2023/11/20 02:37:54;;;;;;;11.13;2.60;;;;;;;;;;5054300;28;20033;-36
2023/11/20 02:40:21;;;;;;;6.68;2.85;;;;;;;;;;5056058;28;20505;-36
2023/11/20 02:42:48;;;;;;;9.35;2.72;;;;;;;;;;5061007;28;20261;-35
2023/11/20 02:45:15;;;;;;;8.35;2.55;;;;;;;;;;5037322;28;20387;-35
2023/11/20 02:47:42;;;;;;;9.80;2.78;;;;;;;;;;5053311;28;20132;-36
2023/11/20 02:50:09;;;;;;;9.05;2.45;;;;;;;;;;5053718;28;20033;-36
2023/11/20 02:52:36;;;;;;;12.20;2.70;;;;;;;;;;5053893;28;20059;-35
2023/11/20 02:55:06;;;;;;;8.57;2.67;;;;;;;;;;5053273;28;20032;-34
2023/11/20 02:57:33;;;;;;;12.23;2.60;;;;;;;;;;5053434;28;20037;-42
2023/11/20 03:00:00;;;;;;;14.07;2.67;;;;;;;;;;5035244;28;20394;-36
2023/11/20 03:02:27;;;;;;;10.25;2.53;;;;;;;;;;5053598;28;20501;-38
2023/11/20 03:04:55;;;;;;;9.70;2.40;;;;;;;;;;5052893;28;20376;-38
2023/11/20 03:07:22;;;;;;;11.70;2.90;;;;;;;;;;5053382;28;20121;-37
2023/11/20 03:09:49;;;;;;;11.35;2.53;;;;;;;;;;5053119;28;20032;-37
2023/11/20 03:12:17;;;;;;;9.23;2.33;;;;;;;;;;5060463;28;20761;-36
2023/11/20 03:14:44;;;;;;;9.23;2.85;;;;;;;;;;5057020;28;20720;-35
2023/11/20 03:17:11;;;;;;;9.45;2.38;;;;;;;;;;5053534;28;20099;-35
2023/11/20 03:19:39;;;;;;;6.50;2.20;;;;;;;;;;5052280;28;20696;-36
2023/11/20 03:22:06;;;;;;;6.82;2.10;;;;;;;;;;5052916;28;20032;-34
2023/11/20 03:24:33;;;;;;;10.93;2.20;;;;;;;;;;5035285;28;20047;-36
2023/11/20 03:27:00;;;;;;;8.98;2.72;;;;;;;;;;5053005;28;20076;-33
2023/11/20 03:29:27;;;;;;;7.90;1.95;;;;;;;;;;5053239;28;20021;-33
2023/11/20 03:31:55;;;;;;;7.07;2.10;;;;;;;;;;5039658;28;20119;-35
2023/11/20 03:34:22;;;;;;;8.57;2.28;;;;;;;;;;5052690;28;20090;-38
2023/11/20 03:36:49;;;;;;;11.55;2.47;;;;;;;;;;5052882;28;20099;-32
2023/11/20 03:39:16;;;;;;;9.88;2.38;;;;;;;;;;5052854;28;20487;-35
2023/11/20 03:41:43;;;;;;;10.63;2.20;;;;;;;;;;5063959;28;20490;-35
2023/11/20 03:44:10;;;;;;;9.65;2.40;;;;;;;;;;5054778;28;20029;-34
2023/11/20 03:46:36;;;;;;;9.25;2.25;;;;;;;;;;5053136;28;20029;-36
2023/11/20 03:49:06;;;;;;;9.93;1.90;;;;;;;;;;5052461;28;20049;-36
2023/11/20 03:51:33;;;;;;;6.75;1.83;;;;;;;;;;5052734;28;20119;-37
2023/11/20 03:54:00;;;;;;;7.68;1.80;;;;;;;;;;5053081;28;20024;-36
2023/11/20 03:56:30;;;;;;;7.05;2.20;;;;;;;;;;5053120;28;20136;-37
2023/11/20 03:58:57;;;;;;;7.50;2.38;;;;;;;;;;5052856;28;20033;-37
2023/11/20 04:01:24;;;;;;;6.40;2.13;;;;;;;;;;5052821;28;20521;-35
2023/11/20 04:03:51;;;;;;;5.68;1.52;;;;;;;;;;5052703;28;20021;-36
2023/11/20 04:06:18;;;;;;;7.07;1.48;;;;;;;;;;5052775;28;20120;-35
2023/11/20 04:08:45;;;;;;;9.40;2.35;;;;;;;;;;5052758;28;20049;-36
2023/11/20 04:11:12;;;;;;;7.72;2.03;;;;;;;;;;5052660;28;20029;-38
2023/11/20 04:13:39;;;;;;;8.98;2.25;;;;;;;;;;5052380;28;20144;-38
2023/11/20 04:16:07;;;;;;;9.00;1.90;;;;;;;;;;5052348;28;20090;-36
2023/11/20 04:18:34;;;;;;;7.80;1.83;;;;;;;;;;5052598;28;20039;-35
2023/11/20 04:21:03;;;;;;;5.25;1.60;;;;;;;;;;5052477;28;20119;-36
2023/11/20 04:23:30;;;;;;;5.65;1.90;;;;;;;;;;5052252;28;20037;-37
2023/11/20 04:25:57;;;;;;;6.97;1.52;;;;;;;;;;5052428;28;20605;-37
2023/11/20 04:28:24;;;;;;;6.68;1.75;;;;;;;;;;5052415;28;20017;-36
2023/11/20 04:30:51;;;;;;;8.45;2.22;;;;;;;;;;5051256;28;20021;-38
2023/11/20 04:33:18;;;;;;;5.30;2.08;;;;;;;;;;5052146;28;20394;-36
2023/11/20 04:35:45;;;;;;;4.25;1.42;;;;;;;;;;5052320;28;20032;-36
2023/11/20 04:38:12;;;;;;;5.63;1.58;;;;;;;;;;5034378;28;20505;-36
2023/11/20 04:40:40;;;;;;;10.77;2.25;;;;;;;;;;5052271;28;20046;-35
2023/11/20 04:43:07;;;;;;;10.05;1.77;;;;;;;;;;5051911;28;20485;-36
2023/11/20 04:45:34;;;;;;;9.65;1.30;;;;;;;;;;5052047;28;20028;-37
2023/11/20 04:48:01;;;;;;;6.82;1.27;;;;;;;;;;5051854;28;20411;-35
2023/11/20 04:50:28;;;;;;;8.57;1.83;;;;;;;;;;5052016;28;20549;-36
2023/11/20 04:52:55;;;;;;;5.72;1.88;;;;;;;;;;5051684;28;20540;-35
2023/11/20 04:55:25;;;;;;;6.15;1.60;;;;;;;;;;5052252;28;20031;-37
2023/11/20 04:57:52;;;;;;;5.72;1.35;;;;;;;;;;5051825;28;20028;-37
2023/11/20 05:00:19;;;;;;;8.32;1.70;;;;;;;;;;5051755;28;20112;-34
2023/11/20 05:02:46;;;;;;;8.63;1.70;;;;;;;;;;5051790;28;20091;-34
2023/11/20 05:05:13;;;;;;;8.00;2.15;;;;;;;;;;5051734;28;20510;-38
2023/11/20 05:07:40;;;;;;;7.65;1.80;;;;;;;;;;5051699;28;20031;-35
2023/11/20 05:10:07;;;;;;;10.68;1.65;;;;;;;;;;5051710;28;20029;-35
2023/11/20 05:12:34;;;;;;;5.90;1.85;;;;;;;;;;5051536;28;20048;-40
2023/11/20 05:15:02;;;;;;;10.40;1.65;;;;;;;;;;5051690;28;20443;-33
2023/11/20 05:17:29;;;;;;;10.82;1.52;;;;;;;;;;5051296;28;20028;-34
2023/11/20 05:19:55;;;;;;;10.20;2.05;;;;;;;;;;5032712;28;20036;-37
2023/11/20 05:22:22;;;;;;;11.32;2.38;;;;;;;;;;5031438;28;20503;-36
2023/11/20 05:24:49;;;;;;;7.43;1.60;;;;;;;;;;5032078;28;20079;-36
2023/11/20 05:27:18;;;;;;;8.65;1.92;;;;;;;;;;5032031;28;20095;-37
2023/11/20 05:29:46;;;;;;;7.10;1.38;;;;;;;;;;5031982;28;20038;-36
2023/11/20 05:32:13;;;;;;;16.42;2.10;;;;;;;;;;5044362;28;20446;-37
2023/11/20 05:34:40;;;;;;;12.05;2.10;;;;;;;;;;5050957;28;20036;-37
2023/11/20 05:37:07;;;;;;;7.20;1.38;;;;;;;;;;5051058;28;20029;-37
2023/11/20 05:39:34;;;;;;;12.60;1.80;;;;;;;;;;5050834;28;20103;-37
2023/11/20 05:42:01;;;;;;;11.52;1.77;;;;;;;;;;5052540;28;20039;-37
2023/11/20 05:44:28;;;;;;;13.55;1.90;;;;;;;;;;5055069;28;20474;-37
2023/11/20 05:46:55;;;;;;;19.20;1.90;;;;;;;;;;5054506;28;20406;-38
2023/11/20 05:49:22;;;;;;;16.98;2.17;;;;;;;;;;5054932;28;20037;-37
2023/11/20 05:51:49;;;;;;;15.70;2.30;;;;;;;;;;5054714;28;20041;-38
2023/11/20 05:54:16;;;;;;;10.40;1.92;;;;;;;;;;5054550;28;20049;-37
2023/11/20 05:56:43;;;;;;;16.70;1.63;;;;;;;;;;5054748;28;20447;-37
2023/11/20 05:59:10;;;;;;;16.10;1.92;;;;;;;;;;5054596;28;20037;-37
2023/11/20 06:01:40;;;;;;;15.02;2.38;;;;;;;;;;5052524;28;20546;-37
2023/11/20 06:04:10;;;;;;;17.98;1.92;;;;;;;;;;5054898;28;20479;-37
2023/11/20 06:06:37;;;;;;;15.18;2.03;;;;;;;;;;5054889;28;20034;-37
2023/11/20 06:09:05;;;;;;;18.70;1.92;;;;;;;;;;5051145;28;20030;-37
2023/11/20 06:11:33;;;;;;;18.27;2.03;;;;;;;;;;5054698;28;20477;-37
2023/11/20 06:14:00;;;;;;;19.60;2.20;;;;;;;;;;5054872;28;20045;-37
2023/11/20 06:16:27;;;;;;;23.80;2.92;;;;;;;;;;5054881;28;20499;-37
2023/11/20 06:18:54;;;;;;;21.83;2.00;;;;;;;;;;5054873;28;20028;-37
2023/11/20 06:21:22;;;;;;;16.30;2.80;;;;;;;;;;5054599;28;20040;-37
2023/11/20 06:23:49;;;;;;;27.40;2.28;;;;;;;;;;5054577;28;20103;-37
2023/11/20 06:26:16;;;;;;;23.23;2.28;;;;;;;;;;5054730;28;20502;-37
2023/11/20 06:28:44;;;;;;;19.33;2.28;;;;;;;;;;5053866;28;20033;-37
2023/11/20 06:31:11;;;;;;;19.98;2.65;;;;;;;;;;5054204;28;20498;-37
2023/11/20 06:33:39;;;;;;;21.83;2.25;;;;;;;;;;5054451;28;20040;-37
2023/11/20 06:36:07;;;;;;;14.32;1.83;;;;;;;;;;5054476;28;20021;-37
2023/11/20 06:38:35;;;;;;;12.63;2.03;;;;;;;;;;5054232;28;20123;-36
2023/11/20 06:41:02;;;;;;;14.48;1.77;;;;;;;;;;5054141;28;20570;-37
2023/11/20 06:43:30;;;;;;;16.70;1.85;;;;;;;;;;5054401;28;20028;-36
2023/11/20 06:45:59;;;;;;;16.38;1.88;;;;;;;;;;5054281;28;20049;-37
2023/11/20 06:48:26;;;;;;;13.07;1.80;;;;;;;;;;5053720;28;20045;-39
2023/11/20 06:50:53;;;;;;;12.52;1.52;;;;;;;;;;5054071;28;20390;-37
2023/11/20 06:53:21;;;;;;;15.65;1.80;;;;;;;;;;5052801;28;20059;-37
2023/11/20 06:55:48;;;;;;;12.43;1.70;;;;;;;;;;5053019;28;20044;-37
2023/11/20 06:58:15;;;;;;;9.13;1.42;;;;;;;;;;5053566;28;20021;-37
2023/11/20 07:00:42;;;;;;;15.32;1.67;;;;;;;;;;5053974;28;20025;-37
2023/11/20 07:03:09;;;;;;;14.13;1.77;;;;;;;;;;5053865;28;20102;-37
2023/11/20 07:05:37;;;;;;;11.52;1.35;;;;;;;;;;5054025;28;20025;-37
2023/11/20 07:08:07;;;;;;;9.73;1.70;;;;;;;;;;5053842;28;20117;-37
2023/11/20 07:10:34;;;;;;;9.55;1.38;;;;;;;;;;5053773;28;20036;-37
2023/11/20 07:13:01;;;;;;;7.78;1.42;;;;;;;;;;5053346;28;20060;-37
2023/11/20 07:15:28;;;;;;;14.45;1.25;;;;;;;;;;5035759;28;20092;-37
2023/11/20 07:17:55;;;;;;;11.80;1.90;;;;;;;;;;5053658;28;20364;-37
2023/11/20 07:20:22;;;;;;;7.90;1.25;;;;;;;;;;5053762;28;20032;-37
2023/11/20 07:22:49;;;;;;;8.40;1.45;;;;;;;;;;5053597;28;20108;-37
2023/11/20 07:25:16;;;;;;;8.95;1.60;;;;;;;;;;5053398;28;20025;-37
2023/11/20 07:27:43;;;;;;;9.82;1.30;;;;;;;;;;5053530;28;20053;-37
2023/11/20 07:30:11;;;;;;;11.63;1.80;;;;;;;;;;5053510;28;20029;-37
2023/11/20 07:32:38;;;;;;;9.10;1.60;;;;;;;;;;5053398;28;20056;-37
2023/11/20 07:35:05;;;;;;;5.80;1.23;;;;;;;;;;5053466;28;20033;-37
2023/11/20 07:37:33;;;;;;;7.35;1.30;;;;;;;;;;5035358;28;20102;-37
2023/11/20 07:40:00;;;;;;;9.10;1.45;;;;;;;;;;5053287;28;20031;-37
2023/11/20 07:42:27;;;;;;;5.63;1.00;;;;;;;;;;5053279;28;20032;-37
2023/11/20 07:44:54;;;;;;;14.73;1.50;;;;;;;;;;5053174;28;20024;-37
2023/11/20 07:47:21;;;;;;;10.48;1.27;;;;;;;;;;5053103;28;20406;-37
2023/11/20 07:49:48;;;;;;;6.40;0.90;;;;;;;;;;5053150;28;20503;-37
2023/11/20 07:52:15;;;;;;;5.10;1.20;;;;;;;;;;5052938;28;20033;-37
2023/11/20 07:54:43;;;;;;;5.85;1.20;;;;;;;;;;5053118;28;20025;-37
2023/11/20 07:57:11;;;;;;;5.43;1.15;;;;;;;;;;5035035;28;20044;-37
2023/11/20 07:59:38;;;;;;;7.03;1.20;;;;;;;;;;5052730;28;20036;-37
2023/11/20 08:02:07;;;;;;;5.47;1.08;;;;;;;;;;5052857;28;20031;-37
2023/11/20 08:04:37;;;;;;;12.02;1.00;;;;;;;;;;5052362;28;20415;-37
2023/11/20 08:07:04;;;;;;;7.75;0.98;;;;;;;;;;5052719;28;20124;-37
2023/11/20 08:09:31;;;;;;;8.43;1.20;;;;;;;;;;5052824;28;20051;-37
2023/11/20 08:11:59;;;;;;;10.93;1.75;;;;;;;;;;5052534;28;20555;-37
2023/11/20 08:14:26;;;;;;;9.93;1.67;;;;;;;;;;5052567;28;20037;-37
2023/11/20 08:16:57;;;;;;;6.63;1.10;;;;;;;;;;5052500;28;20413;-37
2023/11/20 08:19:24;;;;;;;7.40;1.02;;;;;;;;;;5052607;28;20059;-37
2023/11/20 08:21:51;;;;;;;8.32;1.50;;;;;;;;;;5052446;28;20039;-36
2023/11/20 08:24:18;;;;;;;7.68;1.15;;;;;;;;;;5052473;28;20040;-36
2023/11/20 08:26:48;;;;;;;9.50;1.30;;;;;;;;;;5052411;28;20049;-36
2023/11/20 08:29:21;;;;;;;5.85;1.42;;;;;;;;;;5052427;28;20056;-36
2023/11/20 08:31:48;;;;;;;9.27;1.15;;;;;;;;;;5052174;28;20045;-37
2023/11/20 08:34:21;;;;;;;6.18;1.30;;;;;;;;;;5052266;28;20533;-37
2023/11/20 08:36:48;;;;;;;13.85;1.75;;;;;;;;;;5052265;28;20120;-37
2023/11/20 08:39:15;;;;;;;7.82;1.00;;;;;;;;;;5052210;28;20510;-37
2023/11/20 08:41:42;;;;;;;8.23;1.00;;;;;;;;;;5052154;28;20040;-37
2023/11/20 08:44:11;;;;;;;11.57;1.52;;;;;;;;;;5034013;28;20033;-37
2023/11/20 08:46:38;;;;;;;7.15;1.30;;;;;;;;;;5051918;28;20040;-36
2023/11/20 08:49:06;;;;;;;6.47;1.10;;;;;;;;;;5051958;28;20067;-36
2023/11/20 08:51:33;;;;;;;6.43;1.30;;;;;;;;;;5051767;28;20087;-36
2023/11/20 08:54:00;;;;;;;8.32;1.20;;;;;;;;;;5051915;28;20028;-36
2023/11/20 08:56:28;;;;;;;10.55;1.80;;;;;;;;;;5051975;28;20499;-37
2023/11/20 08:58:55;;;;;;;8.10;1.35;;;;;;;;;;5051871;28;20028;-37
2023/11/20 09:01:34;;;;;;;7.43;1.05;;;;;;;;;;5051764;28;20100;-37
2023/11/20 09:04:05;;;;;;;9.00;1.17;;;;;;;;;;5051835;28;20025;-36
2023/11/20 09:06:33;;;;;;;5.50;1.10;;;;;;;;;;5051669;28;20078;-36
2023/11/20 09:09:00;;;;;;;5.78;1.00;;;;;;;;;;5051754;28;20032;-37
2023/11/20 09:11:29;;;;;;;8.05;1.17;;;;;;;;;;5051526;28;20112;-36
2023/11/20 09:13:55;;;;;;;6.35;1.10;;;;;;;;;;5051526;28;20043;-37
2023/11/20 09:16:22;;;;;;;9.65;1.05;;;;;;;;;;5051048;28;20029;-36
2023/11/20 09:18:50;;;;;;;7.72;1.25;;;;;;;;;;5051580;28;20103;-37
2023/11/20 09:21:18;;;;;;;6.45;1.58;;;;;;;;;;5051534;28;20025;-37
2023/11/20 09:23:45;;;;;;;6.18;1.15;;;;;;;;;;5051354;28;20498;-36
2023/11/20 09:26:12;;;;;;;14.48;1.23;;;;;;;;;;5051558;28;20114;-37
2023/11/20 09:28:40;;;;;;;8.85;1.30;;;;;;;;;;5051411;28;20037;-37
2023/11/20 09:31:07;;;;;;;8.52;1.02;;;;;;;;;;5051290;28;20025;-37
2023/11/20 09:33:35;;;;;;;7.57;1.40;;;;;;;;;;5051494;28;20060;-34
2023/11/20 09:36:03;;;;;;;8.98;1.23;;;;;;;;;;5051075;28;20411;-35
2023/11/20 09:38:30;;;;;;;7.38;1.13;;;;;;;;;;5051076;28;20033;-34
2023/11/20 09:40:58;;;;;;;8.50;1.52;;;;;;;;;;5051329;28;20044;-35
2023/11/20 09:43:29;;;;;;;7.78;1.20;;;;;;;;;;5051207;28;20033;-35
2023/11/20 09:46:00;;;;;;;11.25;1.15;;;;;;;;;;5051309;28;20037;-34
2023/11/20 09:48:30;;;;;;;6.35;1.30;;;;;;;;;;5033094;28;20160;-34
2023/11/20 09:50:57;;;;;;;10.13;1.35;;;;;;;;;;5051168;28;20036;-35
2023/11/20 09:53:27;;;;;;;4.00;1.05;;;;;;;;;;5051278;28;20064;-35
2023/11/20 09:55:54;;;;;;;8.07;1.55;;;;;;;;;;5051301;28;20021;-35
2023/11/20 09:58:21;;;;;;;5.72;1.15;;;;;;;;;;5051205;28;20148;-34
2023/11/20 10:00:48;;;;;;;8.77;1.35;;;;;;;;;;5051252;28;20064;-34
2023/11/20 10:03:15;;;;;;;11.05;1.50;;;;;;;;;;5051119;28;20025;-34
2023/11/20 10:05:48;;;;;;;6.43;1.13;;;;;;;;;;5051135;28;20052;-34
2023/11/20 10:08:16;;;;;;;5.70;1.20;;;;;;;;;;5051070;28;20483;-34
2023/11/20 10:10:43;;;;;;;9.90;2.05;;;;;;;;;;5051056;28;20025;-34
2023/11/20 10:13:11;;;;;;;10.05;1.58;;;;;;;;;;5050940;28;20134;-34
2023/11/20 10:15:39;;;;;;;7.95;1.30;;;;;;;;;;5050938;28;20048;-35
2023/11/20 10:18:06;;;;;;;9.95;1.80;;;;;;;;;;5033058;28;20025;-34
2023/11/20 10:20:49;;;;;;;12.27;1.85;;;;;;;;;;5050925;28;20029;-34
2023/11/20 10:23:17;;;;;;;11.25;2.20;;;;;;;;;;5050803;28;20041;-34
2023/11/20 10:25:45;;;;;;;15.18;2.03;;;;;;;;;;5050992;28;20032;-35
2023/11/20 10:28:15;;;;;;;6.93;1.30;;;;;;;;;;5052727;28;20593;-35
2023/11/20 10:30:43;;;;;;;12.05;1.40;;;;;;;;;;5054613;28;20021;-35
2023/11/20 10:33:20;;;;;;;6.28;1.35;;;;;;;;;;5054283;28;20124;-36
2023/11/20 10:35:52;;;;;;;10.80;1.30;;;;;;;;;;5054507;28;20036;-36
2023/11/20 10:38:19;;;;;;;11.02;1.58;;;;;;;;;;5054603;28;20062;-36
2023/11/20 10:40:50;;;;;;;13.52;1.60;;;;;;;;;;5054345;28;20541;-35
2023/11/20 10:43:17;;;;;;;11.75;1.55;;;;;;;;;;5053804;28;20024;-36
2023/11/20 10:45:45;;;;;;;12.52;1.60;;;;;;;;;;5054409;28;20108;-37
2023/11/20 10:48:12;;;;;;;18.63;1.90;;;;;;;;;;5054151;28;20049;-37
2023/11/20 10:50:41;;;;;;;9.05;1.33;;;;;;;;;;5054300;28;20029;-36
2023/11/20 10:53:08;;;;;;;8.68;1.70;;;;;;;;;;5054129;28;20466;-36
2023/11/20 10:55:38;;;;;;;15.45;1.58;;;;;;;;;;5054254;28;20058;-37
2023/11/20 10:58:06;;;;;;;12.98;1.92;;;;;;;;;;5054049;28;20104;-36
2023/11/20 11:00:35;;;;;;;6.05;1.33;;;;;;;;;;5053882;28;20072;-37
2023/11/20 11:03:03;;;;;;;11.77;1.30;;;;;;;;;;5053761;28;20043;-37
2023/11/20 11:05:30;;;;;;;12.57;1.60;;;;;;;;;;5053740;28;20510;-36
2023/11/20 11:07:58;;;;;;;12.65;2.00;;;;;;;;;;5053948;28;20544;-36
2023/11/20 11:10:25;;;;;;;12.73;1.48;;;;;;;;;;5053924;28;20024;-37
2023/11/20 11:12:55;;;;;;;10.13;1.48;;;;;;;;;;5053570;28;20037;-37
2023/11/20 11:15:22;;;;;;;8.52;1.40;;;;;;;;;;5053631;28;20411;-36
2023/11/20 11:17:50;;;;;;;10.23;1.50;;;;;;;;;;5052107;28;20498;-36
2023/11/20 11:20:22;;;;;;;13.05;1.60;;;;;;;;;;5033752;28;20025;-37
2023/11/20 11:22:59;;;;;;;10.63;1.73;;;;;;;;;;5033804;28;20137;-36
2023/11/20 11:25:28;;;;;;;8.07;1.33;;;;;;;;;;5033545;28;20037;-36
2023/11/20 11:27:58;;;;;;;10.77;1.85;;;;;;;;;;5033669;28;20029;-37
2023/11/20 11:30:27;;;;;;;11.13;2.17;;;;;;;;;;5033559;28;20102;-36
2023/11/20 11:32:57;;;;;;;11.13;1.85;;;;;;;;;;5033239;28;20045;-36
2023/11/20 11:35:42;;;;;;;10.38;1.80;;;;;;;;;;5015628;28;20040;-36
2023/11/20 11:38:18;;;;;;;9.73;1.55;;;;;;;;;;5033451;28;20068;-36
2023/11/20 11:40:56;;;;;;;11.15;1.40;;;;;;;;;;5032667;28;20399;-36
2023/11/20 11:43:27;;;;;;;7.07;1.38;;;;;;;;;;5033329;28;20076;-36
2023/11/20 11:45:58;;;;;;;6.95;1.63;;;;;;;;;;5033238;28;20108;-36
2023/11/20 11:48:34;;;;;;;8.73;1.17;;;;;;;;;;5032923;28;20045;-36
2023/11/20 11:51:08;;;;;;;9.65;1.50;;;;;;;;;;5032811;28;20049;-35
2023/11/20 11:53:34;;;;;;;11.98;1.77;;;;;;;;;;5033091;28;20041;-36
2023/11/20 11:56:07;;;;;;;9.65;2.17;;;;;;;;;;5032952;28;20029;-35
2023/11/20 11:58:33;;;;;;;;;;;;;;;;;;5033261;28;20037;-38
2023/11/20 12:01:16;;;;;;;17.33;1.50;;;;;;;;;;5032930;28;19919;-36
2023/11/20 12:03:46;;;;;;;5.90;1.30;;;;;;;;;;5032910;28;20091;-36
2023/11/20 12:06:14;;;;;;;8.30;1.50;;;;;;;;;;5032980;28;20039;-37
2023/11/20 12:08:41;;;;;;;9.90;1.88;;;;;;;;;;5033008;28;20495;-36
2023/11/20 12:11:10;;;;;;;10.93;1.67;;;;;;;;;;5039669;28;20526;-37
2023/11/20 12:13:57;;;;;;;7.28;1.20;;;;;;;;;;5041286;28;20037;-36
2023/11/20 12:16:36;;;;;;;9.57;2.17;;;;;;;;;;5042955;28;20051;-36
2023/11/20 12:19:03;;;;;;;10.00;1.67;;;;;;;;;;5042845;28;20040;-36
2023/11/20 12:21:30;;;;;;;9.10;1.60;;;;;;;;;;5041601;28;20022;-36
2023/11/20 12:23:58;;;;;;;14.13;1.52;;;;;;;;;;5040969;28;20021;-36
2023/11/20 12:26:26;;;;;;;13.75;1.92;;;;;;;;;;5042724;28;20082;-36
2023/11/20 12:28:53;;;;;;;9.02;1.73;;;;;;;;;;5027605;28;20029;-36
2023/11/20 12:31:21;;;;;;;9.88;2.30;;;;;;;;;;5042514;28;20045;-35
2023/11/20 12:33:50;;;;;;;13.70;1.75;;;;;;;;;;5042579;28;20386;-36
2023/11/20 12:36:17;;;;;;;14.57;2.08;;;;;;;;;;5039632;28;20091;-35
2023/11/20 12:38:45;;;;;;;15.85;1.77;;;;;;;;;;5041739;28;20044;-36
2023/11/20 12:41:13;;;;;;;13.65;1.55;;;;;;;;;;5040190;28;20120;-36
2023/11/20 12:43:40;;;;;;;13.10;1.65;;;;;;;;;;5041806;28;20493;-36
2023/11/20 12:46:07;;;;;;;13.70;2.10;;;;;;;;;;5042005;28;20033;-35
2023/11/20 12:48:35;;;;;;;15.07;2.15;;;;;;;;;;5039575;28;20033;-36
2023/11/20 12:51:03;;;;;;;21.92;3.15;;;;;;;;;;5046539;28;20060;-36
2023/11/20 12:53:33;;;;;;;21.42;2.28;;;;;;;;;;5042360;28;20045;-36
2023/11/20 12:56:04;;;;;;;11.15;1.80;;;;;;;;;;5040932;28;20034;-35
2023/11/20 12:58:32;;;;;;;10.93;2.03;;;;;;;;;;5039816;28;20815;-35
2023/11/20 13:00:59;;;;;;;13.20;1.88;;;;;;;;;;5038495;28;20411;-36
2023/11/20 13:03:27;;;;;;;17.33;2.22;;;;;;;;;;5042278;28;20036;-36
2023/11/20 13:05:55;;;;;;;12.00;2.13;;;;;;;;;;5039244;28;20033;-36
2023/11/20 13:08:23;;;;;;;16.08;2.10;;;;;;;;;;5040156;28;20472;-36
2023/11/20 13:11:00;;;;;;;14.00;2.03;;;;;;;;;;5044260;28;20028;-35
2023/11/20 13:13:28;;;;;;;16.90;2.10;;;;;;;;;;5047109;28;20558;-36
2023/11/20 13:15:57;;;;;;;19.75;2.42;;;;;;;;;;5042005;28;20380;-35
2023/11/20 13:18:24;;;;;;;31.75;3.83;;;;;;;;;;5039765;28;20029;-35
2023/11/20 13:20:52;;;;;;;35.80;2.97;;;;;;;;;;5039600;28;20484;-35
2023/11/20 13:23:28;;;;;;;33.28;3.63;;;;;;;;;;5040255;28;20033;-36
2023/11/20 13:26:17;;;;;;;29.23;2.90;;;;;;;;;;5041043;28;20098;-35
2023/11/20 13:28:44;;;;;;;27.77;2.50;;;;;;;;;;5041070;28;20124;-36
2023/11/20 13:31:12;;;;;;;30.17;3.22;;;;;;;;;;5041705;28;20033;-35
2023/11/20 13:33:46;;;;;;;22.52;2.97;;;;;;;;;;5044126;28;20048;-35
2023/11/20 13:36:13;;;;;;;26.17;3.00;;;;;;;;;;5038236;28;20044;-36
2023/11/20 13:38:41;;;;;;;25.48;2.60;;;;;;;;;;5041317;28;20034;-37
2023/11/20 13:41:08;;;;;;;48.58;4.15;;;;;;;;;;5042268;28;20025;-35
2023/11/20 13:43:35;;;;;;;21.42;3.15;;;;;;;;;;5038897;28;20561;-34
2023/11/20 13:46:03;;;;;;;27.02;3.13;;;;;;;;;;5043155;28;20021;-34
2023/11/20 13:48:33;;;;;;;22.20;2.60;;;;;;;;;;5041851;28;20049;-34
2023/11/20 13:51:05;;;;;;;25.95;2.33;;;;;;;;;;5027459;28;20061;-34
2023/11/20 13:53:31;;;;;;;24.42;2.70;;;;;;;;;;5033388;28;20065;-34
2023/11/20 13:55:58;;;;;;;27.60;2.70;;;;;;;;;;5040359;28;20483;-34
2023/11/20 13:58:26;;;;;;;28.55;3.03;;;;;;;;;;5043552;28;20071;-33
2023/11/20 14:00:55;;;;;;;20.33;3.08;;;;;;;;;;5021581;28;20032;-35
2023/11/20 14:03:22;;;;;;;21.40;3.47;;;;;;;;;;5036695;28;20022;-34
2023/11/20 14:05:50;;;;;;;27.08;2.70;;;;;;;;;;5043188;28;20029;-33
2023/11/20 14:08:17;;;;;;;20.77;2.88;;;;;;;;;;5034894;28;20033;-34
2023/11/20 14:10:47;;;;;;;25.95;3.17;;;;;;;;;;5034925;28;20030;-33
2023/11/20 14:13:15;;;;;;;19.23;2.30;;;;;;;;;;5034585;28;20626;-34
2023/11/20 14:15:42;;;;;;;31.65;2.80;;;;;;;;;;5030029;28;20036;-34
2023/11/20 14:18:09;;;;;;;24.27;2.72;;;;;;;;;;5042699;28;20061;-34
2023/11/20 14:20:37;;;;;;;18.02;3.05;;;;;;;;;;5043155;28;20033;-33
2023/11/20 14:23:04;;;;;;;21.08;2.95;;;;;;;;;;5044559;28;20116;-34
2023/11/20 14:25:32;;;;;;;28.38;2.95;;;;;;;;;;5042923;28;20029;-34
2023/11/20 14:27:59;;;;;;;23.48;2.92;;;;;;;;;;5044667;28;20040;-33
2023/11/20 14:30:26;;;;;;;28.00;2.67;;;;;;;;;;5047713;28;20399;-34
2023/11/20 14:32:53;;;;;;;31.95;3.20;;;;;;;;;;5042789;28;20044;-34
2023/11/20 14:35:21;;;;;;;23.60;3.42;;;;;;;;;;5042641;28;20029;-34
2023/11/20 14:37:48;;;;;;;16.83;3.15;;;;;;;;;;5039823;28;20159;-34
2023/11/20 14:40:16;;;;;;;27.73;3.13;;;;;;;;;;5040844;28;20025;-34